sensor_id;sensor_type;location;lat;lon;timestamp;pressure;altitude;pressure_sealevel;temperature;humidity
50672;BME280;46021;55.882;37.654;2023-03-01T00:00:28;98680.19;;;-7.09;57.49
50672;BME280;46021;55.882;37.654;2023-03-01T00:02:55;98681.06;;;-7.09;58.45
50672;BME280;46021;55.882;37.654;2023-03-01T00:05:22;98682.66;;;-7.12;57.76
50672;BME280;46021;55.882;37.654;2023-03-01T00:07:52;98675.06;;;-7.11;57.58
50672;BME280;46021;55.882;37.654;2023-03-01T00:10:19;98675.03;;;-7.14;57.79
50672;BME280;46021;55.882;37.654;2023-03-01T00:12:46;98680.13;;;-7.11;57.13
50672;BME280;46021;55.882;37.654;2023-03-01T00:15:15;98676.72;;;-7.13;58.24
50672;BME280;46021;55.882;37.654;2023-03-01T00:17:42;98663.25;;;-7.12;57.63
50672;BME280;46021;55.882;37.654;2023-03-01T00:20:11;98652.06;;;-7.21;57.18
50672;BME280;46021;55.882;37.654;2023-03-01T00:22:38;98659.81;;;-7.14;57.95
50672;BME280;46021;55.882;37.654;2023-03-01T00:25:05;98653.84;;;-7.17;57.86
50672;BME280;46021;55.882;37.654;2023-03-01T00:27:32;98667.34;;;-7.17;58.36
50672;BME280;46021;55.882;37.654;2023-03-01T00:29:59;98661.25;;;-7.25;57.49
50672;BME280;46021;55.882;37.654;2023-03-01T00:32:29;98666.41;;;-7.22;57.44
50672;BME280;46021;55.882;37.654;2023-03-01T00:34:56;98672.31;;;-7.21;57.65
50672;BME280;46021;55.882;37.654;2023-03-01T00:37:23;98671.34;;;-7.27;57.79
50672;BME280;46021;55.882;37.654;2023-03-01T00:39:50;98669.50;;;-7.34;58.32
50672;BME280;46021;55.882;37.654;2023-03-01T00:42:18;98670.34;;;-7.35;57.65
50672;BME280;46021;55.882;37.654;2023-03-01T00:44:45;98663.66;;;-7.30;57.59
50672;BME280;46021;55.882;37.654;2023-03-01T00:47:12;98677.97;;;-7.33;57.97
50672;BME280;46021;55.882;37.654;2023-03-01T00:49:41;98674.59;;;-7.32;57.86
50672;BME280;46021;55.882;37.654;2023-03-01T00:52:08;98668.81;;;-7.27;58.07
50672;BME280;46021;55.882;37.654;2023-03-01T00:54:35;98663.72;;;-7.28;57.73
50672;BME280;46021;55.882;37.654;2023-03-01T00:57:02;98665.41;;;-7.29;57.92
50672;BME280;46021;55.882;37.654;2023-03-01T00:59:29;98662.78;;;-7.33;58.44
50672;BME280;46021;55.882;37.654;2023-03-01T01:01:56;98668.56;;;-7.37;57.87
50672;BME280;46021;55.882;37.654;2023-03-01T01:04:24;98656.78;;;-7.37;58.17
50672;BME280;46021;55.882;37.654;2023-03-01T01:06:52;98654.22;;;-7.38;58.52
50672;BME280;46021;55.882;37.654;2023-03-01T01:09:20;98660.88;;;-7.42;58.51
50672;BME280;46021;55.882;37.654;2023-03-01T01:11:48;98657.50;;;-7.41;58.07
50672;BME280;46021;55.882;37.654;2023-03-01T01:14:16;98661.72;;;-7.41;58.40
50672;BME280;46021;55.882;37.654;2023-03-01T01:16:43;98660.88;;;-7.42;58.37
50672;BME280;46021;55.882;37.654;2023-03-01T01:19:11;98661.69;;;-7.43;58.23
50672;BME280;46021;55.882;37.654;2023-03-01T01:21:38;98659.06;;;-7.48;59.04
50672;BME280;46021;55.882;37.654;2023-03-01T01:24:08;98657.28;;;-7.52;58.73
50672;BME280;46021;55.882;37.654;2023-03-01T01:26:36;98667.53;;;-7.46;59.39
50672;BME280;46021;55.882;37.654;2023-03-01T01:29:04;98662.34;;;-7.52;59.22
50672;BME280;46021;55.882;37.654;2023-03-01T01:31:32;98670.97;;;-7.43;58.76
50672;BME280;46021;55.882;37.654;2023-03-01T01:34:01;98669.19;;;-7.48;58.81
50672;BME280;46021;55.882;37.654;2023-03-01T01:36:28;98675.09;;;-7.47;59.63
50672;BME280;46021;55.882;37.654;2023-03-01T01:38:56;98677.75;;;-7.42;58.95
50672;BME280;46021;55.882;37.654;2023-03-01T01:41:25;98674.47;;;-7.38;59.77
50672;BME280;46021;55.882;37.654;2023-03-01T01:46:54;98679.56;;;-7.37;59.69
50672;BME280;46021;55.882;37.654;2023-03-01T01:49:27;98676.34;;;-7.30;59.20
50672;BME280;46021;55.882;37.654;2023-03-01T01:52:00;98671.91;;;-7.40;59.48
50672;BME280;46021;55.882;37.654;2023-03-01T01:54:33;98676.16;;;-7.37;59.10
50672;BME280;46021;55.882;37.654;2023-03-01T01:57:08;98672.81;;;-7.36;59.24
50672;BME280;46021;55.882;37.654;2023-03-01T01:59:36;98679.53;;;-7.38;60.27
50672;BME280;46021;55.882;37.654;2023-03-01T02:02:05;98687.88;;;-7.42;59.61
50672;BME280;46021;55.882;37.654;2023-03-01T02:04:33;98686.09;;;-7.45;60.28
50672;BME280;46021;55.882;37.654;2023-03-01T02:07:02;98678.28;;;-7.56;60.05
50672;BME280;46021;55.882;37.654;2023-03-01T02:09:33;98680.09;;;-7.50;60.62
50672;BME280;46021;55.882;37.654;2023-03-01T02:12:02;98677.38;;;-7.58;59.72
50672;BME280;46021;55.882;37.654;2023-03-01T02:14:32;98682.38;;;-7.61;60.45
50672;BME280;46021;55.882;37.654;2023-03-01T02:16:59;98685.56;;;-7.68;60.08
50672;BME280;46021;55.882;37.654;2023-03-01T02:19:37;98685.69;;;-7.62;59.95
50672;BME280;46021;55.882;37.654;2023-03-01T02:22:13;98678.19;;;-7.59;60.15
50672;BME280;46021;55.882;37.654;2023-03-01T02:24:54;98684.72;;;-7.69;60.69
50672;BME280;46021;55.882;37.654;2023-03-01T02:27:30;98687.09;;;-7.73;60.71
50672;BME280;46021;55.882;37.654;2023-03-01T02:30:01;98686.19;;;-7.77;61.19
50672;BME280;46021;55.882;37.654;2023-03-01T02:32:29;98689.44;;;-7.81;60.87
50672;BME280;46021;55.882;37.654;2023-03-01T02:34:55;98689.41;;;-7.82;61.47
50672;BME280;46021;55.882;37.654;2023-03-01T02:37:25;98685.09;;;-7.87;61.42
50672;BME280;46021;55.882;37.654;2023-03-01T02:39:56;98694.44;;;-7.84;61.26
50672;BME280;46021;55.882;37.654;2023-03-01T02:42:28;98691.13;;;-7.81;61.94
50672;BME280;46021;55.882;37.654;2023-03-01T02:44:57;98690.16;;;-7.87;61.88
50672;BME280;46021;55.882;37.654;2023-03-01T02:47:26;98690.69;;;-7.98;61.43
50672;BME280;46021;55.882;37.654;2023-03-01T02:49:53;98696.59;;;-7.98;61.91
50672;BME280;46021;55.882;37.654;2023-03-01T02:52:43;98694.91;;;-7.99;61.93
50672;BME280;46021;55.882;37.654;2023-03-01T02:55:14;98694.75;;;-8.05;61.95
50672;BME280;46021;55.882;37.654;2023-03-01T02:57:45;98693.06;;;-8.05;62.54
50672;BME280;46021;55.882;37.654;2023-03-01T03:00:19;98706.56;;;-8.04;62.05
50672;BME280;46021;55.882;37.654;2023-03-01T03:02:51;98696.22;;;-8.13;62.61
50672;BME280;46021;55.882;37.654;2023-03-01T03:05:25;98702.00;;;-8.17;63.03
50672;BME280;46021;55.882;37.654;2023-03-01T03:07:56;98704.63;;;-8.14;63.00
50672;BME280;46021;55.882;37.654;2023-03-01T03:10:27;98699.31;;;-8.24;63.06
50672;BME280;46021;55.882;37.654;2023-03-01T03:12:56;98697.53;;;-8.28;63.49
50672;BME280;46021;55.882;37.654;2023-03-01T03:15:25;98700.75;;;-8.32;63.17
50672;BME280;46021;55.882;37.654;2023-03-01T03:17:54;98711.56;;;-8.37;63.65
50672;BME280;46021;55.882;37.654;2023-03-01T03:20:25;98697.34;;;-8.34;63.61
50672;BME280;46021;55.882;37.654;2023-03-01T03:22:55;98696.59;;;-8.31;62.92
50672;BME280;46021;55.882;37.654;2023-03-01T03:25:23;98700.81;;;-8.30;63.48
50672;BME280;46021;55.882;37.654;2023-03-01T03:27:52;98698.97;;;-8.36;63.72
50672;BME280;46021;55.882;37.654;2023-03-01T03:30:23;98705.72;;;-8.36;63.86
50672;BME280;46021;55.882;37.654;2023-03-01T03:32:51;98713.28;;;-8.36;64.00
50672;BME280;46021;55.882;37.654;2023-03-01T03:35:21;98714.97;;;-8.37;63.25
50672;BME280;46021;55.882;37.654;2023-03-01T03:37:50;98717.34;;;-8.43;63.71
50672;BME280;46021;55.882;37.654;2023-03-01T03:40:33;98722.31;;;-8.46;64.40
50672;BME280;46021;55.882;37.654;2023-03-01T03:43:01;98717.25;;;-8.46;64.13
50672;BME280;46021;55.882;37.654;2023-03-01T03:45:28;98706.91;;;-8.55;63.84
50672;BME280;46021;55.882;37.654;2023-03-01T03:47:55;98720.44;;;-8.53;63.97
50672;BME280;46021;55.882;37.654;2023-03-01T03:50:24;98716.16;;;-8.56;64.69
50672;BME280;46021;55.882;37.654;2023-03-01T03:52:51;98715.25;;;-8.58;64.79
50672;BME280;46021;55.882;37.654;2023-03-01T03:55:18;98708.53;;;-8.57;64.67
50672;BME280;46021;55.882;37.654;2023-03-01T03:57:47;98706.78;;;-8.58;64.27
50672;BME280;46021;55.882;37.654;2023-03-01T04:00:18;98703.53;;;-8.56;64.37
50672;BME280;46021;55.882;37.654;2023-03-01T04:02:47;98713.66;;;-8.54;64.67
50672;BME280;46021;55.882;37.654;2023-03-01T04:05:16;98717.81;;;-8.56;64.40
50672;BME280;46021;55.882;37.654;2023-03-01T04:07:45;98719.38;;;-8.60;64.83
50672;BME280;46021;55.882;37.654;2023-03-01T04:10:15;98722.56;;;-8.67;64.81
50672;BME280;46021;55.882;37.654;2023-03-01T04:12:42;98733.47;;;-8.68;64.77
50672;BME280;46021;55.882;37.654;2023-03-01T04:15:11;98732.00;;;-8.60;65.03
50672;BME280;46021;55.882;37.654;2023-03-01T04:17:42;98726.28;;;-8.54;64.49
50672;BME280;46021;55.882;37.654;2023-03-01T04:20:11;98726.25;;;-8.56;65.06
50672;BME280;46021;55.882;37.654;2023-03-01T04:22:39;98726.25;;;-8.56;64.64
50672;BME280;46021;55.882;37.654;2023-03-01T04:25:08;98728.75;;;-8.57;65.21
50672;BME280;46021;55.882;37.654;2023-03-01T04:27:40;98720.78;;;-8.71;65.33
50672;BME280;46021;55.882;37.654;2023-03-01T04:30:08;98732.94;;;-8.58;65.36
50672;BME280;46021;55.882;37.654;2023-03-01T04:32:36;98730.19;;;-8.66;65.62
50672;BME280;46021;55.882;37.654;2023-03-01T04:35:03;98729.16;;;-8.72;65.52
50672;BME280;46021;55.882;37.654;2023-03-01T04:37:30;98719.94;;;-8.70;65.61
50672;BME280;46021;55.882;37.654;2023-03-01T04:39:58;98729.38;;;-8.65;65.66
50672;BME280;46021;55.882;37.654;2023-03-01T04:42:26;98727.97;;;-8.55;65.45
50672;BME280;46021;55.882;37.654;2023-03-01T04:44:53;98723.16;;;-8.46;65.81
50672;BME280;46021;55.882;37.654;2023-03-01T04:47:20;98735.25;;;-8.34;65.62
50672;BME280;46021;55.882;37.654;2023-03-01T04:49:47;98732.03;;;-8.30;64.79
50672;BME280;46021;55.882;37.654;2023-03-01T04:52:14;98737.94;;;-8.29;65.04
50672;BME280;46021;55.882;37.654;2023-03-01T04:54:41;98734.34;;;-8.36;64.48
50672;BME280;46021;55.882;37.654;2023-03-01T04:57:09;98740.13;;;-8.40;65.35
50672;BME280;46021;55.882;37.654;2023-03-01T04:59:37;98745.13;;;-8.45;65.45
50672;BME280;46021;55.882;37.654;2023-03-01T05:02:04;98755.25;;;-8.43;65.58
50672;BME280;46021;55.882;37.654;2023-03-01T05:04:31;98746.25;;;-8.32;65.01
50672;BME280;46021;55.882;37.654;2023-03-01T05:06:58;98741.47;;;-8.23;65.30
50672;BME280;46021;55.882;37.654;2023-03-01T05:09:26;98744.28;;;-8.12;64.40
50672;BME280;46021;55.882;37.654;2023-03-01T05:11:53;98742.06;;;-8.01;65.11
50672;BME280;46021;55.882;37.654;2023-03-01T05:14:20;98745.50;;;-7.66;65.22
50672;BME280;46021;55.882;37.654;2023-03-01T05:16:48;98753.78;;;-7.03;64.44
50672;BME280;46021;55.882;37.654;2023-03-01T05:19:15;98754.28;;;-6.42;62.65
50672;BME280;46021;55.882;37.654;2023-03-01T05:21:48;98754.13;;;-6.50;61.16
50672;BME280;46021;55.882;37.654;2023-03-01T05:24:32;98756.63;;;-6.51;61.38
50672;BME280;46021;55.882;37.654;2023-03-01T05:27:00;98753.63;;;-6.73;61.52
50672;BME280;46021;55.882;37.654;2023-03-01T05:29:29;98750.34;;;-7.05;61.59
50672;BME280;46021;55.882;37.654;2023-03-01T05:32:02;98755.03;;;-7.20;61.88
50672;BME280;46021;55.882;37.654;2023-03-01T05:34:31;98761.25;;;-7.44;63.12
50672;BME280;46021;55.882;37.654;2023-03-01T05:36:59;98770.34;;;-7.51;62.20
50672;BME280;46021;55.882;37.654;2023-03-01T05:39:27;98765.03;;;-7.60;63.40
50672;BME280;46021;55.882;37.654;2023-03-01T05:41:56;98774.44;;;-7.56;63.35
50672;BME280;46021;55.882;37.654;2023-03-01T05:44:24;98770.88;;;-7.62;62.62
50672;BME280;46021;55.882;37.654;2023-03-01T05:46:52;98780.31;;;-7.57;62.74
50672;BME280;46021;55.882;37.654;2023-03-01T05:49:21;98780.47;;;-7.51;62.60
50672;BME280;46021;55.882;37.654;2023-03-01T05:51:51;98765.72;;;-7.66;63.14
50672;BME280;46021;55.882;37.654;2023-03-01T05:54:18;98778.75;;;-7.52;63.41
50672;BME280;46021;55.882;37.654;2023-03-01T05:56:46;98788.94;;;-7.49;63.81
50672;BME280;46021;55.882;37.654;2023-03-01T05:59:13;98794.25;;;-7.39;63.86
50672;BME280;46021;55.882;37.654;2023-03-01T06:01:42;98784.97;;;-7.40;62.95
50672;BME280;46021;55.882;37.654;2023-03-01T06:04:09;98793.63;;;-7.31;62.64
50672;BME280;46021;55.882;37.654;2023-03-01T06:06:38;98791.34;;;-7.21;63.13
50672;BME280;46021;55.882;37.654;2023-03-01T06:09:05;98804.56;;;-7.32;62.68
50672;BME280;46021;55.882;37.654;2023-03-01T06:11:35;98794.19;;;-7.41;62.39
50672;BME280;46021;55.882;37.654;2023-03-01T06:14:02;98785.53;;;-7.51;63.41
50672;BME280;46021;55.882;37.654;2023-03-01T06:16:30;98791.16;;;-7.29;63.24
50672;BME280;46021;55.882;37.654;2023-03-01T06:18:57;98798.19;;;-7.17;63.09
50672;BME280;46021;55.882;37.654;2023-03-01T06:21:24;98792.72;;;-6.98;62.64
50672;BME280;46021;55.882;37.654;2023-03-01T06:23:52;98797.09;;;-6.92;62.91
50672;BME280;46021;55.882;37.654;2023-03-01T06:26:20;98795.16;;;-7.02;62.50
50672;BME280;46021;55.882;37.654;2023-03-01T06:28:47;98802.72;;;-7.04;62.90
50672;BME280;46021;55.882;37.654;2023-03-01T06:31:14;98800.41;;;-6.95;62.41
50672;BME280;46021;55.882;37.654;2023-03-01T06:33:41;98800.09;;;-6.72;61.84
50672;BME280;46021;55.882;37.654;2023-03-01T06:36:10;98801.41;;;-6.52;61.54
50672;BME280;46021;55.882;37.654;2023-03-01T06:38:37;98805.94;;;-6.37;61.78
50672;BME280;46021;55.882;37.654;2023-03-01T06:41:07;98792.25;;;-6.43;61.39
50672;BME280;46021;55.882;37.654;2023-03-01T06:43:34;98805.09;;;-6.36;61.24
50672;BME280;46021;55.882;37.654;2023-03-01T06:46:04;98803.00;;;-6.16;61.49
50672;BME280;46021;55.882;37.654;2023-03-01T06:48:32;98809.94;;;-6.07;60.56
50672;BME280;46021;55.882;37.654;2023-03-01T06:50:59;98806.53;;;-6.08;60.45
50672;BME280;46021;55.882;37.654;2023-03-01T06:53:27;98806.03;;;-5.90;60.73
50672;BME280;46021;55.882;37.654;2023-03-01T06:55:55;98813.53;;;-5.94;59.82
50672;BME280;46021;55.882;37.654;2023-03-01T06:58:23;98821.22;;;-5.91;60.01
50672;BME280;46021;55.882;37.654;2023-03-01T07:00:50;98819.50;;;-5.92;59.98
50672;BME280;46021;55.882;37.654;2023-03-01T07:03:18;98822.84;;;-5.96;59.60
50672;BME280;46021;55.882;37.654;2023-03-01T07:05:48;98825.66;;;-5.81;60.08
50672;BME280;46021;55.882;37.654;2023-03-01T07:08:17;98822.38;;;-5.75;59.80
50672;BME280;46021;55.882;37.654;2023-03-01T07:10:44;98833.41;;;-5.73;59.39
50672;BME280;46021;55.882;37.654;2023-03-01T07:13:11;98838.94;;;-5.49;59.77
50672;BME280;46021;55.882;37.654;2023-03-01T07:15:40;98840.94;;;-5.32;59.18
50672;BME280;46021;55.882;37.654;2023-03-01T07:18:07;98852.13;;;-5.22;59.79
50672;BME280;46021;55.882;37.654;2023-03-01T07:20:34;98851.09;;;-5.34;58.70
50672;BME280;46021;55.882;37.654;2023-03-01T07:23:02;98849.56;;;-5.24;59.50
50672;BME280;46021;55.882;37.654;2023-03-01T07:25:29;98857.56;;;-5.02;59.11
50672;BME280;46021;55.882;37.654;2023-03-01T07:27:56;98852.59;;;-4.96;59.04
50672;BME280;46021;55.882;37.654;2023-03-01T07:30:23;98856.84;;;-4.95;57.64
50672;BME280;46021;55.882;37.654;2023-03-01T07:32:54;98862.94;;;-4.85;58.50
50672;BME280;46021;55.882;37.654;2023-03-01T07:35:21;98855.28;;;-4.87;58.75
50672;BME280;46021;55.882;37.654;2023-03-01T07:37:49;98855.59;;;-4.68;57.88
50672;BME280;46021;55.882;37.654;2023-03-01T07:40:16;98854.25;;;-4.45;57.57
50672;BME280;46021;55.882;37.654;2023-03-01T07:42:43;98840.56;;;-4.53;57.89
50672;BME280;46021;55.882;37.654;2023-03-01T07:45:11;98837.28;;;-4.46;58.67
50672;BME280;46021;55.882;37.654;2023-03-01T07:47:39;98856.97;;;-4.33;56.97
50672;BME280;46021;55.882;37.654;2023-03-01T07:50:09;98845.88;;;-4.38;57.18
50672;BME280;46021;55.882;37.654;2023-03-01T07:52:36;98840.75;;;-4.39;57.62
50672;BME280;46021;55.882;37.654;2023-03-01T07:55:04;98847.81;;;-4.21;56.48
50672;BME280;46021;55.882;37.654;2023-03-01T07:57:31;98845.34;;;-4.15;58.06
50672;BME280;46021;55.882;37.654;2023-03-01T07:59:58;98850.88;;;-3.81;56.87
50672;BME280;46021;55.882;37.654;2023-03-01T08:02:25;98856.75;;;-3.87;55.91
50672;BME280;46021;55.882;37.654;2023-03-01T08:04:52;98848.09;;;-4.00;57.05
50672;BME280;46021;55.882;37.654;2023-03-01T08:07:21;98852.03;;;-4.22;56.95
50672;BME280;46021;55.882;37.654;2023-03-01T08:09:48;98838.03;;;-4.50;57.88
50672;BME280;46021;55.882;37.654;2023-03-01T08:12:15;98849.34;;;-4.33;57.47
50672;BME280;46021;55.882;37.654;2023-03-01T08:14:43;98838.41;;;-4.24;57.78
50672;BME280;46021;55.882;37.654;2023-03-01T08:19:40;98858.63;;;-4.36;58.02
50672;BME280;46021;55.882;37.654;2023-03-01T08:22:07;98858.50;;;-4.44;58.29
50672;BME280;46021;55.882;37.654;2023-03-01T08:24:35;98859.19;;;-4.54;58.38
50672;BME280;46021;55.882;37.654;2023-03-01T08:27:02;98877.47;;;-4.77;59.25
50672;BME280;46021;55.882;37.654;2023-03-01T08:29:31;98889.38;;;-4.76;59.10
50672;BME280;46021;55.882;37.654;2023-03-01T08:31:58;98891.13;;;-4.72;59.18
50672;BME280;46021;55.882;37.654;2023-03-01T08:34:26;98876.84;;;-4.63;59.39
50672;BME280;46021;55.882;37.654;2023-03-01T08:36:53;98881.13;;;-4.61;59.04
50672;BME280;46021;55.882;37.654;2023-03-01T08:39:21;98875.72;;;-4.81;59.40
50672;BME280;46021;55.882;37.654;2023-03-01T08:41:50;98889.78;;;-5.00;58.92
50672;BME280;46021;55.882;37.654;2023-03-01T08:44:17;98893.50;;;-4.81;59.25
50672;BME280;46021;55.882;37.654;2023-03-01T08:46:45;98899.56;;;-4.73;58.85
50672;BME280;46021;55.882;37.654;2023-03-01T08:49:13;98899.88;;;-4.54;59.35
50672;BME280;46021;55.882;37.654;2023-03-01T08:51:40;98896.59;;;-4.47;58.41
50672;BME280;46021;55.882;37.654;2023-03-01T08:54:11;98884.31;;;-4.19;58.74
50672;BME280;46021;55.882;37.654;2023-03-01T08:56:40;98890.75;;;-3.80;57.69
50672;BME280;46021;55.882;37.654;2023-03-01T08:59:10;98896.75;;;-3.02;58.22
50672;BME280;46021;55.882;37.654;2023-03-01T09:01:37;98897.94;;;-1.09;56.70
50672;BME280;46021;55.882;37.654;2023-03-01T09:04:05;98893.16;;;1.19;52.43
50672;BME280;46021;55.882;37.654;2023-03-01T09:06:33;98882.50;;;2.52;46.38
50672;BME280;46021;55.882;37.654;2023-03-01T09:09:02;98881.66;;;3.69;46.44
50672;BME280;46021;55.882;37.654;2023-03-01T09:11:29;98864.16;;;3.87;46.33
50672;BME280;46021;55.882;37.654;2023-03-01T09:13:56;98869.00;;;4.91;46.27
50672;BME280;46021;55.882;37.654;2023-03-01T09:16:25;98877.31;;;5.41;41.24
50672;BME280;46021;55.882;37.654;2023-03-01T09:18:53;98868.47;;;5.86;40.91
50672;BME280;46021;55.882;37.654;2023-03-01T09:21:22;98876.09;;;5.56;39.70
50672;BME280;46021;55.882;37.654;2023-03-01T09:23:50;98877.88;;;5.54;40.39
50672;BME280;46021;55.882;37.654;2023-03-01T09:26:19;98873.16;;;6.06;39.35
50672;BME280;46021;55.882;37.654;2023-03-01T09:28:49;98879.97;;;4.60;38.63
50672;BME280;46021;55.882;37.654;2023-03-01T09:31:18;98873.47;;;3.96;39.78
50672;BME280;46021;55.882;37.654;2023-03-01T09:33:48;98883.72;;;2.93;39.91
50672;BME280;46021;55.882;37.654;2023-03-01T09:36:17;98869.53;;;1.84;41.60
50672;BME280;46021;55.882;37.654;2023-03-01T09:38:44;98872.03;;;0.80;43.83
50672;BME280;46021;55.882;37.654;2023-03-01T09:41:24;98882.94;;;1.16;44.56
50672;BME280;46021;55.882;37.654;2023-03-01T09:43:56;98861.78;;;1.87;43.59
50672;BME280;46021;55.882;37.654;2023-03-01T09:46:25;98875.44;;;2.69;43.29
50672;BME280;46021;55.882;37.654;2023-03-01T09:48:57;98883.72;;;2.93;41.44
50672;BME280;46021;55.882;37.654;2023-03-01T09:51:31;98883.56;;;3.02;41.09
50672;BME280;46021;55.882;37.654;2023-03-01T09:53:58;98886.94;;;1.52;42.28
50672;BME280;46021;55.882;37.654;2023-03-01T09:56:30;98886.69;;;0.50;44.26
50672;BME280;46021;55.882;37.654;2023-03-01T09:59:20;98898.00;;;-0.09;44.40
50672;BME280;46021;55.882;37.654;2023-03-01T10:01:54;98891.97;;;-1.11;46.94
50672;BME280;46021;55.882;37.654;2023-03-01T10:04:36;98902.81;;;-1.71;48.37
50672;BME280;46021;55.882;37.654;2023-03-01T10:07:19;98899.31;;;-1.85;49.53
50672;BME280;46021;55.882;37.654;2023-03-01T10:09:48;98907.16;;;-1.51;49.20
50672;BME280;46021;55.882;37.654;2023-03-01T10:12:19;98904.78;;;-0.99;47.59
50672;BME280;46021;55.882;37.654;2023-03-01T10:14:55;98903.69;;;-1.67;48.62
50672;BME280;46021;55.882;37.654;2023-03-01T10:17:30;98902.75;;;-1.86;49.17
50672;BME280;46021;55.882;37.654;2023-03-01T10:20:19;98913.31;;;-2.57;50.46
50672;BME280;46021;55.882;37.654;2023-03-01T10:22:54;98898.63;;;-2.84;50.96
50672;BME280;46021;55.882;37.654;2023-03-01T10:25:40;98903.47;;;-3.08;51.61
50672;BME280;46021;55.882;37.654;2023-03-01T10:28:16;98904.69;;;-2.74;51.53
50672;BME280;46021;55.882;37.654;2023-03-01T10:30:44;98915.06;;;-2.52;51.36
50672;BME280;46021;55.882;37.654;2023-03-01T10:33:17;98912.78;;;-2.14;51.52
50672;BME280;46021;55.882;37.654;2023-03-01T10:35:48;98911.09;;;-2.12;50.75
50672;BME280;46021;55.882;37.654;2023-03-01T10:38:16;98892.00;;;-2.63;51.24
50672;BME280;46021;55.882;37.654;2023-03-01T10:40:51;98900.78;;;-2.27;51.58
50672;BME280;46021;55.882;37.654;2023-03-01T10:43:19;98903.59;;;-1.84;51.36
50672;BME280;46021;55.882;37.654;2023-03-01T10:45:46;98893.75;;;-0.60;51.71
50672;BME280;46021;55.882;37.654;2023-03-01T10:48:16;98896.84;;;0.73;48.13
50672;BME280;46021;55.882;37.654;2023-03-01T10:50:45;98888.06;;;2.17;47.47
50672;BME280;46021;55.882;37.654;2023-03-01T10:53:24;98893.50;;;1.87;43.19
50672;BME280;46021;55.882;37.654;2023-03-01T10:56:03;98902.47;;;1.37;43.02
50672;BME280;46021;55.882;37.654;2023-03-01T10:58:32;98889.38;;;0.21;45.44
50672;BME280;46021;55.882;37.654;2023-03-01T11:01:02;98896.31;;;-0.58;46.10
50672;BME280;46021;55.882;37.654;2023-03-01T11:03:31;98891.19;;;-0.49;46.78
50672;BME280;46021;55.882;37.654;2023-03-01T11:06:05;98906.47;;;-1.03;47.78
50672;BME280;46021;55.882;37.654;2023-03-01T11:08:37;98896.72;;;-1.96;48.83
50672;BME280;46021;55.882;37.654;2023-03-01T11:11:11;98900.59;;;-2.55;50.40
50672;BME280;46021;55.882;37.654;2023-03-01T11:13:51;98905.44;;;-2.83;51.06
50672;BME280;46021;55.882;37.654;2023-03-01T11:16:33;98897.75;;;-2.89;50.92
50672;BME280;46021;55.882;37.654;2023-03-01T11:19:19;98905.16;;;-3.10;52.13
50672;BME280;46021;55.882;37.654;2023-03-01T11:21:57;98901.97;;;-2.91;51.91
50672;BME280;46021;55.882;37.654;2023-03-01T11:24:33;98904.25;;;-2.19;52.22
50672;BME280;46021;55.882;37.654;2023-03-01T11:27:03;98896.97;;;-1.41;48.86
50672;BME280;46021;55.882;37.654;2023-03-01T11:29:37;98914.19;;;-0.78;47.88
50672;BME280;46021;55.882;37.654;2023-03-01T11:32:08;98905.72;;;-0.42;48.00
50672;BME280;46021;55.882;37.654;2023-03-01T11:34:42;98898.81;;;0.02;46.61
50672;BME280;46021;55.882;37.654;2023-03-01T11:37:32;98908.13;;;0.28;44.27
50672;BME280;46021;55.882;37.654;2023-03-01T11:40:11;98899.59;;;0.27;44.29
50672;BME280;46021;55.882;37.654;2023-03-01T11:42:48;98917.59;;;-0.68;45.96
50672;BME280;46021;55.882;37.654;2023-03-01T11:45:20;98903.09;;;-1.00;47.21
50672;BME280;46021;55.882;37.654;2023-03-01T11:47:58;98897.13;;;-0.61;47.15
50672;BME280;46021;55.882;37.654;2023-03-01T11:50:35;98911.63;;;-0.86;45.73
50672;BME280;46021;55.882;37.654;2023-03-01T11:53:27;98909.81;;;-1.24;46.58
50672;BME280;46021;55.882;37.654;2023-03-01T11:56:05;98913.06;;;-1.65;47.37
50672;BME280;46021;55.882;37.654;2023-03-01T11:58:47;98922.28;;;-1.93;48.39
50672;BME280;46021;55.882;37.654;2023-03-01T12:01:28;98931.50;;;-2.15;49.11
50672;BME280;46021;55.882;37.654;2023-03-01T12:07:08;98921.63;;;-1.53;48.30
50672;BME280;46021;55.882;37.654;2023-03-01T12:10:01;98901.00;;;-1.92;48.10
50672;BME280;46021;55.882;37.654;2023-03-01T12:12:44;98915.25;;;-2.23;49.12
50672;BME280;46021;55.882;37.654;2023-03-01T12:15:37;98935.53;;;-2.45;49.25
50672;BME280;46021;55.882;37.654;2023-03-01T12:21:17;98925.31;;;-2.49;49.72
50672;BME280;46021;55.882;37.654;2023-03-01T12:24:10;98930.31;;;-2.60;49.61
50672;BME280;46021;55.882;37.654;2023-03-01T12:26:46;98926.97;;;-2.53;50.03
50672;BME280;46021;55.882;37.654;2023-03-01T12:29:30;98924.28;;;-2.68;49.92
50672;BME280;46021;55.882;37.654;2023-03-01T12:35:06;98916.09;;;-2.30;49.87
50672;BME280;46021;55.882;37.654;2023-03-01T12:37:48;98921.84;;;-2.55;49.65
50672;BME280;46021;55.882;37.654;2023-03-01T12:40:41;98912.09;;;-2.97;50.80
50672;BME280;46021;55.882;37.654;2023-03-01T12:43:32;98923.06;;;-3.03;51.94
50672;BME280;46021;55.882;37.654;2023-03-01T12:46:19;98924.66;;;-3.16;51.56
50672;BME280;46021;55.882;37.654;2023-03-01T12:48:54;98921.47;;;-2.95;50.57
50672;BME280;46021;55.882;37.654;2023-03-01T12:51:30;98912.78;;;-3.15;52.05
50672;BME280;46021;55.882;37.654;2023-03-01T12:53:59;98922.97;;;-3.14;51.95
50672;BME280;46021;55.882;37.654;2023-03-01T12:56:29;98930.34;;;-3.38;51.46
50672;BME280;46021;55.882;37.654;2023-03-01T12:59:02;98934.25;;;-3.65;52.70
50672;BME280;46021;55.882;37.654;2023-03-01T13:01:40;98920.53;;;-3.76;53.14
50672;BME280;46021;55.882;37.654;2023-03-01T13:04:29;98914.44;;;-3.87;52.65
50672;BME280;46021;55.882;37.654;2023-03-01T13:07:12;98916.16;;;-3.86;53.00
50672;BME280;46021;55.882;37.654;2023-03-01T13:09:46;98929.47;;;-4.03;54.47
50672;BME280;46021;55.882;37.654;2023-03-01T13:12:45;98920.34;;;-3.90;53.85
50672;BME280;46021;55.882;37.654;2023-03-01T13:15:37;98932.09;;;-4.00;53.80
50672;BME280;46021;55.882;37.654;2023-03-01T13:18:32;98917.56;;;-4.05;54.74
50672;BME280;46021;55.882;37.654;2023-03-01T13:21:01;98921.09;;;-3.96;54.27
50672;BME280;46021;55.882;37.654;2023-03-01T13:23:33;98933.84;;;-3.96;55.16